Time;durP1;ratioP1;P1;durP2;ratioP2;P2;SDS_P1;SDS_P2;PMS_P1;PMS_P2;Temp;Humidity;BMP_temperature;BMP_pressure;BME280_temperature;BME280_humidity;BME280_pressure;Samples;Min_cycle;Max_cycle;Signal;HPM_P1;HPM_P2
2022/08/17 00:01:02;;;;;;;;;;;;;;;;;;5084597;28;19927;-72
2022/08/17 00:03:28;;;;;;;;;;;;;;;;;;5087331;28;20287;-71
2022/08/17 00:05:54;;;;;;;;;;;;;;;;;;5087432;28;20251;-71
2022/08/17 00:08:20;;;;;;;;;;;;;;;;;;5086646;28;19969;-74
2022/08/17 00:10:46;;;;;;;;;;;;;;;;;;5085759;28;19928;-71
2022/08/17 00:13:12;;;;;;;;;;;;;;;;;;5085408;28;19920;-71
2022/08/17 00:15:38;;;;;;;;;;;;;;;;;;5086467;28;19973;-72
2022/08/17 00:18:04;;;;;;;;;;;;;;;;;;5087985;28;19931;-71
2022/08/17 00:20:30;;;;;;;;;;;;;;;;;;5084723;28;19931;-72
2022/08/17 00:22:56;;;;;;;;;;;;;;;;;;5083853;28;20006;-71
2022/08/17 00:25:21;;;;;;;;;;;;;;;;;;5084196;28;19934;-70
2022/08/17 00:27:47;;;;;;;;;;;;;;;;;;5066832;28;19970;-71
2022/08/17 00:30:13;;;;;;;;;;;;;;;;;;5083039;28;19941;-74
2022/08/17 00:32:39;;;;;;;;;;;;;;;;;;5086994;28;19931;-72
2022/08/17 00:35:05;;;;;;;;;;;;;;;;;;5086397;28;19966;-71
2022/08/17 00:37:31;;;;;;;;;;;;;;;;;;5085776;28;20359;-72
2022/08/17 00:39:57;;;;;;;;;;;;;;;;;;5081488;28;19963;-71
2022/08/17 00:42:23;;;;;;;;;;;;;;;;;;5067207;28;19924;-73
2022/08/17 00:44:49;;;;;;;;;;;;;;;;;;5080819;28;20175;-71
2022/08/17 00:47:15;;;;;;;;;;;;;;;;;;5087299;28;19942;-72
2022/08/17 00:49:41;;;;;;;;;;;;;;;;;;5085532;28;19968;-73
2022/08/17 00:52:09;;;;;;;;;;;;;;;;;;5084195;28;20336;-71
2022/08/17 00:54:35;;;;;;;;;;;;;;;;;;5088071;28;19927;-72
2022/08/17 00:57:01;;;;;;;;;;;;;;;;;;5080452;28;20174;-71
2022/08/17 00:59:29;;;;;;;;;;;;;;;;;;5083367;28;19920;-72
2022/08/17 01:01:55;;;;;;;;;;;;;;;;;;5072258;28;19932;-71
2022/08/17 01:04:21;;;;;;;;;;;;;;;;;;5086607;28;19927;-71
2022/08/17 01:06:48;;;;;;;;;;;;;;;;;;5084683;28;20011;-72
2022/08/17 01:09:14;;;;;;;;;;;;;;;;;;5085593;28;20244;-71
2022/08/17 01:11:40;;;;;;;;;;;;;;;;;;5067902;28;19932;-75
2022/08/17 01:14:07;;;;;;;;;;;;;;;;;;5083389;28;19987;-73
2022/08/17 01:16:33;;;;;;;;;;;;;;;;;;5087340;28;19939;-72
2022/08/17 01:18:59;;;;;;;;;;;;;;;;;;5085522;28;19924;-71
2022/08/17 01:21:25;;;;;;;;;;;;;;;;;;5081876;28;21454;-71
2022/08/17 01:23:51;;;;;;;;;;;;;;;;;;5084283;28;20272;-72
2022/08/17 01:26:17;;;;;;;;;;;;;;;;;;5083901;28;19928;-71
2022/08/17 01:28:44;;;;;;;;;;;;;;;;;;5085525;28;19919;-75
2022/08/17 01:31:09;;;;;;;;;;;;;;;;;;5082767;28;19970;-72
2022/08/17 01:33:35;;;;;;;;;;;;;;;;;;5085128;28;19975;-74
2022/08/17 01:36:02;;;;;;;;;;;;;;;;;;5099141;27;19923;-71
2022/08/17 01:38:30;;;;;;;;;;;;;;;;;;5085962;28;19920;-71
2022/08/17 01:40:56;;;;;;;;;;;;;;;;;;5087429;28;20398;-71
2022/08/17 01:43:22;;;;;;;;;;;;;;;;;;5083232;28;19928;-71
2022/08/17 01:45:48;;;;;;;;;;;;;;;;;;5080823;28;19924;-73
2022/08/17 01:48:14;;;;;;;;;;;;;;;;;;5080264;28;20255;-71
2022/08/17 01:50:40;;;;;;;;;;;;;;;;;;5086694;28;19923;-72
2022/08/17 01:53:06;;;;;;;;;;;;;;;;;;5100048;27;20174;-75
2022/08/17 01:55:32;;;;;;;;;;;;;;;;;;5080440;28;20278;-72
2022/08/17 01:57:58;;;;;;;;;;;;;;;;;;5083016;28;20260;-72
2022/08/17 02:00:24;;;;;;;;;;;;;;;;;;5064948;28;19925;-71
2022/08/17 02:02:50;;;;;;;;;;;;;;;;;;5088166;28;19977;-71
2022/08/17 02:05:17;;;;;;;;;;;;;;;;;;5086409;28;19974;-71
2022/08/17 02:07:44;;;;;;;;;;;;;;;;;;5091908;28;20771;-72
2022/08/17 02:10:10;;;;;;;;;;;;;;;;;;5103092;28;20125;-72
2022/08/17 02:12:36;;;;;;;;;;;;;;;;;;5098462;28;20015;-71
2022/08/17 02:15:02;;;;;;;;;;;;;;;;;;5090760;28;19932;-72
2022/08/17 02:17:28;;;;;;;;;;;;;;;;;;5081586;28;19943;-71
2022/08/17 02:19:54;;;;;;;;;;;;;;;;;;5095168;28;19927;-71
2022/08/17 02:22:20;;;;;;;;;;;;;;;;;;5089573;28;19992;-71
2022/08/17 02:24:46;;;;;;;;;;;;;;;;;;5082077;28;20268;-74
2022/08/17 02:27:12;;;;;;;;;;;;;;;;;;5082428;28;19920;-72
2022/08/17 02:29:38;;;;;;;;;;;;;;;;;;5093236;28;19928;-72
2022/08/17 02:32:04;;;;;;;;;;;;;;;;;;5088782;28;19924;-72
2022/08/17 02:34:31;;;;;;;;;;;;;;;;;;5083377;28;20000;-72
2022/08/17 02:36:57;;;;;;;;;;;;;;;;;;5081794;28;20532;-72
2022/08/17 02:39:22;;;;;;;;;;;;;;;;;;5086208;28;20358;-71
2022/08/17 02:41:48;;;;;;;;;;;;;;;;;;5084488;28;19920;-73
2022/08/17 02:44:14;;;;;;;;;;;;;;;;;;5082853;28;20406;-72
2022/08/17 02:46:40;;;;;;;;;;;;;;;;;;5089805;28;19932;-72
2022/08/17 02:49:06;;;;;;;;;;;;;;;;;;5090536;28;19920;-72
2022/08/17 02:51:32;;;;;;;;;;;;;;;;;;5080837;28;19927;-70
2022/08/17 02:53:58;;;;;;;;;;;;;;;;;;5089364;28;19927;-72
2022/08/17 02:56:24;;;;;;;;;;;;;;;;;;5090046;28;19920;-72
2022/08/17 02:58:50;;;;;;;;;;;;;;;;;;5069948;28;20901;-74
2022/08/17 03:01:16;;;;;;;;;;;;;;;;;;5094695;28;20346;-71
2022/08/17 03:03:42;;;;;;;;;;;;;;;;;;5097404;28;20373;-71
2022/08/17 03:06:08;;;;;;;;;;;;;;;;;;5094367;28;20407;-71
2022/08/17 03:08:34;;;;;;;;;;;;;;;;;;5089233;28;20489;-77
2022/08/17 03:11:00;;;;;;;;;;;;;;;;;;5073331;28;20356;-72
2022/08/17 03:13:26;;;;;;;;;;;;;;;;;;5073273;28;20377;-71
2022/08/17 03:15:52;;;;;;;;;;;;;;;;;;5095098;28;19932;-72
2022/08/17 03:18:18;;;;;;;;;;;;;;;;;;5094817;28;20011;-71
2022/08/17 03:20:44;;;;;;;;;;;;;;;;;;5095210;28;19973;-73
2022/08/17 03:23:10;;;;;;;;;;;;;;;;;;5122877;27;19932;-71
2022/08/17 03:25:36;;;;;;;;;;;;;;;;;;5106588;28;19920;-71
2022/08/17 03:28:02;;;;;;;;;;;;;;;;;;5097254;28;19927;-71
2022/08/17 03:30:28;;;;;;;;;;;;;;;;;;5094686;28;20351;-71
2022/08/17 03:32:54;;;;;;;;;;;;;;;;;;5092509;28;20006;-74
2022/08/17 03:35:20;;;;;;;;;;;;;;;;;;5096863;28;19932;-71
2022/08/17 03:37:46;;;;;;;;;;;;;;;;;;5093042;28;20354;-72
2022/08/17 03:40:12;;;;;;;;;;;;;;;;;;5100379;28;19932;-71
2022/08/17 03:42:38;;;;;;;;;;;;;;;;;;5095415;28;20274;-71
2022/08/17 03:45:04;;;;;;;;;;;;;;;;;;5094592;28;19924;-71
2022/08/17 03:58:29;;;;;;;;;;;;;;;;;;5093648;28;20283;-72
2022/08/17 04:00:55;;;;;;;;;;;;;;;;;;5096753;28;19974;-71
2022/08/17 04:03:21;;;;;;;;;;;;;;;;;;5096018;28;19954;-71
2022/08/17 04:05:46;;;;;;;;;;;;;;;;;;5100463;28;19920;-71
2022/08/17 04:08:12;;;;;;;;;;;;;;;;;;5095202;28;19995;-71
2022/08/17 04:10:38;;;;;;;;;;;;;;;;;;5106929;28;19920;-71
2022/08/17 04:13:04;;;;;;;;;;;;;;;;;;5075398;28;19924;-71
2022/08/17 04:15:32;;;;;;;;;;;;;;;;;;5072952;28;19924;-71
2022/08/17 04:17:58;;;;;;;;;;;;;;;;;;5094053;28;19927;-74
2022/08/17 04:20:24;;;;;;;;;;;;;;;;;;5093253;28;19928;-70
2022/08/17 04:22:49;;;;;;;;;;;;;;;;;;5095165;28;20007;-71
2022/08/17 04:25:15;;;;;;;;;;;;;;;;;;5086175;28;19920;-71
2022/08/17 04:27:41;;;;;;;;;;;;;;;;;;5100594;28;19920;-71
2022/08/17 04:30:07;;;;;;;;;;;;;;;;;;5070674;28;19932;-71
2022/08/17 04:32:33;;;;;;;;;;;;;;;;;;5094660;28;19942;-71
2022/08/17 04:34:59;;;;;;;;;;;;;;;;;;5084093;28;19985;-74
2022/08/17 04:37:25;;;;;;;;;;;;;;;;;;5106717;28;19966;-71
2022/08/17 04:42:05;;;;;;;;;;;;;;;;;;5110030;28;20381;-71
2022/08/17 04:42:37;;;;;;;;;;;;;;;;;;5102837;28;19973;-71
2022/08/17 04:45:03;;;;;;;;;;;;;;;;;;5100812;28;19920;-72
2022/08/17 04:47:29;;;;;;;;;;;;;;;;;;5092352;28;19921;-71
2022/08/17 04:49:56;;;;;;;;;;;;;;;;;;5074956;28;19966;-71
2022/08/17 04:52:22;;;;;;;;;;;;;;;;;;5091929;28;19931;-71
2022/08/17 04:54:48;;;;;;;;;;;;;;;;;;5093794;28;19920;-71
2022/08/17 04:57:14;;;;;;;;;;;;;;;;;;5102860;28;19920;-71
2022/08/17 04:59:41;;;;;;;;;;;;;;;;;;5092521;28;20420;-72
2022/08/17 05:02:07;;;;;;;;;;;;;;;;;;5090706;28;19920;-71
2022/08/17 05:04:33;;;;;;;;;;;;;;;;;;5091799;28;19920;-71
2022/08/17 05:06:59;;;;;;;;;;;;;;;;;;5097751;28;20407;-71
2022/08/17 05:09:25;;;;;;;;;;;;;;;;;;5093183;28;19920;-71
2022/08/17 05:11:51;;;;;;;;;;;;;;;;;;5091143;28;19955;-71
2022/08/17 05:14:17;;;;;;;;;;;;;;;;;;5095597;28;19927;-71
2022/08/17 05:16:44;;;;;;;;;;;;;;;;;;5095026;28;19994;-71
2022/08/17 05:19:10;;;;;;;;;;;;;;;;;;5091495;28;20276;-73
2022/08/17 05:21:36;;;;;;;;;;;;;;;;;;5092090;28;19927;-71
2022/08/17 05:24:02;;;;;;;;;;;;;;;;;;5100220;28;20420;-71
2022/08/17 05:26:28;;;;;;;;;;;;;;;;;;5096575;28;19924;-71
2022/08/17 05:28:54;;;;;;;;;;;;;;;;;;5091959;28;20359;-71
2022/08/17 05:31:20;;;;;;;;;;;;;;;;;;5089541;28;20397;-71
2022/08/17 05:33:46;;;;;;;;;;;;;;;;;;5090307;28;19920;-72
2022/08/17 05:36:12;;;;;;;;;;;;;;;;;;5095985;28;19920;-72
2022/08/17 05:38:38;;;;;;;;;;;;;;;;;;5097034;28;20365;-71
2022/08/17 05:41:04;;;;;;;;;;;;;;;;;;5092018;28;19924;-75
2022/08/17 05:43:30;;;;;;;;;;;;;;;;;;5091177;28;19924;-71
2022/08/17 05:45:56;;;;;;;;;;;;;;;;;;5091892;28;20010;-71
2022/08/17 05:48:22;;;;;;;;;;;;;;;;;;5088086;28;19928;-74
2022/08/17 05:50:48;;;;;;;;;;;;;;;;;;5092431;28;19920;-73
2022/08/17 05:53:14;;;;;;;;;;;;;;;;;;5103499;28;20740;-71
2022/08/17 05:55:40;;;;;;;;;;;;;;;;;;5099878;28;19931;-71
2022/08/17 05:58:06;;;;;;;;;;;;;;;;;;5103324;28;19920;-74
2022/08/17 06:00:32;;;;;;;;;;;;;;;;;;5089645;28;20007;-74
2022/08/17 06:02:58;;;;;;;;;;;;;;;;;;5095742;28;20053;-71
2022/08/17 06:05:24;;;;;;;;;;;;;;;;;;5079812;28;19920;-71
2022/08/17 06:07:50;;;;;;;;;;;;;;;;;;5069464;28;19924;-71
2022/08/17 06:10:16;;;;;;;;;;;;;;;;;;5080882;28;19927;-71
2022/08/17 06:12:42;;;;;;;;;;;;;;;;;;5100287;28;19920;-72
2022/08/17 06:15:09;;;;;;;;;;;;;;;;;;5095114;28;20282;-75
2022/08/17 06:17:35;;;;;;;;;;;;;;;;;;5096228;28;20436;-72
2022/08/17 06:20:01;;;;;;;;;;;;;;;;;;5088132;28;19959;-71
2022/08/17 06:22:27;;;;;;;;;;;;;;;;;;5119399;27;20221;-72
2022/08/17 06:24:55;;;;;;;;;;;;;;;;;;5102859;28;19926;-71
2022/08/17 06:27:21;;;;;;;;;;;;;;;;;;5098123;28;20032;-71
2022/08/17 06:29:47;;;;;;;;;;;;;;;;;;5096437;28;19940;-72
2022/08/17 06:32:13;;;;;;;;;;;;;;;;;;5097183;28;19952;-71
2022/08/17 06:34:39;;;;;;;;;;;;;;;;;;5101749;28;20359;-72
2022/08/17 06:37:06;;;;;;;;;;;;;;;;;;5102267;28;19920;-71
2022/08/17 06:39:32;;;;;;;;;;;;;;;;;;5087049;28;19924;-71
2022/08/17 06:41:59;;;;;;;;;;;;;;;;;;5099770;28;19926;-71
2022/08/17 06:44:26;;;;;;;;;;;;;;;;;;5100977;28;19920;-71
2022/08/17 06:46:52;;;;;;;;;;;;;;;;;;5084211;28;20329;-71
2022/08/17 06:49:20;;;;;;;;;;;;;;;;;;5084522;28;19920;-72
2022/08/17 06:51:46;;;;;;;;;;;;;;;;;;5101134;28;19920;-72
2022/08/17 06:54:12;;;;;;;;;;;;;;;;;;5114975;28;19927;-72
2022/08/17 06:56:38;;;;;;;;;;;;;;;;;;5103229;28;19920;-74
2022/08/17 06:59:06;;;;;;;;;;;;;;;;;;5097075;28;19931;-71
2022/08/17 07:01:32;;;;;;;;;;;;;;;;;;5093684;28;19924;-71
2022/08/17 07:03:58;;;;;;;;;;;;;;;;;;5095379;28;19943;-71
2022/08/17 07:06:24;;;;;;;;;;;;;;;;;;5093300;28;19965;-71
2022/08/17 07:08:50;;;;;;;;;;;;;;;;;;5118157;27;19920;-72
2022/08/17 07:11:16;;;;;;;;;;;;;;;;;;5078423;28;19924;-72
2022/08/17 07:13:42;;;;;;;;;;;;;;;;;;5081757;28;19921;-72
2022/08/17 07:16:08;;;;;;;;;;;;;;;;;;5092331;28;19927;-75
2022/08/17 07:18:34;;;;;;;;;;;;;;;;;;5101491;28;19924;-71
2022/08/17 07:21:00;;;;;;;;;;;;;;;;;;5120593;27;19981;-72
2022/08/17 07:23:26;;;;;;;;;;;;;;;;;;5076231;28;19920;-71
2022/08/17 07:25:53;;;;;;;;;;;;;;;;;;5104678;28;19927;-71
2022/08/17 07:28:19;;;;;;;;;;;;;;;;;;5095344;28;20316;-71
2022/08/17 07:30:47;;;;;;;;;;;;;;;;;;5076895;28;19920;-72
2022/08/17 07:33:13;;;;;;;;;;;;;;;;;;5095750;28;19920;-75
2022/08/17 07:35:39;;;;;;;;;;;;;;;;;;5105467;28;19927;-72
2022/08/17 07:38:05;;;;;;;;;;;;;;;;;;5115731;28;19920;-71
2022/08/17 07:40:32;;;;;;;;;;;;;;;;;;5094714;28;19920;-72
2022/08/17 07:42:58;;;;;;;;;;;;;;;;;;5085575;28;19939;-72
2022/08/17 07:48:17;;;;;;;;;;;;;;;;;;5091650;28;19927;-73
2022/08/17 07:50:43;;;;;;;;;;;;;;;;;;5094012;28;19920;-73
2022/08/17 07:53:09;;;;;;;;;;;;;;;;;;5091827;28;19927;-72
2022/08/17 07:55:39;;;;;;;;;;;;;;;;;;5096038;28;19924;-71
2022/08/17 07:58:05;;;;;;;;;;;;;;;;;;5085217;28;19965;-71
2022/08/17 08:00:32;;;;;;;;;;;;;;;;;;5098231;28;19928;-71
2022/08/17 08:02:58;;;;;;;;;;;;;;;;;;5088176;28;19921;-71
2022/08/17 08:05:24;;;;;;;;;;;;;;;;;;5085224;28;19927;-71
2022/08/17 08:07:50;;;;;;;;;;;;;;;;;;5092364;28;19924;-72
2022/08/17 08:10:16;;;;;;;;;;;;;;;;;;5096625;28;19920;-74
2022/08/17 08:12:42;;;;;;;;;;;;;;;;;;5094726;28;19920;-71
2022/08/17 08:15:08;;;;;;;;;;;;;;;;;;5091117;28;20064;-71
2022/08/17 08:17:35;;;;;;;;;;;;;;;;;;5092867;28;19920;-71
2022/08/17 08:20:01;;;;;;;;;;;;;;;;;;5106750;28;20378;-71
2022/08/17 08:22:29;;;;;;;;;;;;;;;;;;5079723;28;19943;-73
2022/08/17 08:24:55;;;;;;;;;;;;;;;;;;5091853;28;19920;-72
2022/08/17 08:27:21;;;;;;;;;;;;;;;;;;5097207;28;19977;-72
2022/08/17 08:29:47;;;;;;;;;;;;;;;;;;5083380;28;20335;-72
2022/08/17 08:32:13;;;;;;;;;;;;;;;;;;5076603;28;20378;-76
2022/08/17 08:34:39;;;;;;;;;;;;;;;;;;5108153;28;19924;-76
2022/08/17 08:37:05;;;;;;;;;;;;;;;;;;5097574;28;19920;-73
2022/08/17 08:39:31;;;;;;;;;;;;;;;;;;5094648;28;19946;-72
2022/08/17 08:41:57;;;;;;;;;;;;;;;;;;5098655;28;19923;-72
2022/08/17 08:44:23;;;;;;;;;;;;;;;;;;5084928;28;19920;-72
2022/08/17 08:46:49;;;;;;;;;;;;;;;;;;5091731;28;19927;-73
2022/08/17 08:49:15;;;;;;;;;;;;;;;;;;5084931;28;20286;-72
2022/08/17 08:51:41;;;;;;;;;;;;;;;;;;5077167;28;19920;-74
2022/08/17 08:54:07;;;;;;;;;;;;;;;;;;5085126;28;19919;-72
2022/08/17 08:56:33;;;;;;;;;;;;;;;;;;5092534;28;19927;-73
2022/08/17 08:59:00;;;;;;;;;;;;;;;;;;5105934;27;19924;-75
2022/08/17 09:01:26;;;;;;;;;;;;;;;;;;5092948;28;20023;-74
2022/08/17 09:03:51;;;;;;;;;;;;;;;;;;5103579;28;20367;-73
2022/08/17 09:06:17;;;;;;;;;;;;;;;;;;5075684;28;20260;-73
2022/08/17 09:08:43;;;;;;;;;;;;;;;;;;5087595;28;20339;-74
2022/08/17 09:11:09;;;;;;;;;;;;;;;;;;5098346;28;20544;-74
2022/08/17 09:13:35;;;;;;;;;;;;;;;;;;5100837;28;20334;-73
2022/08/17 09:16:01;;;;;;;;;;;;;;;;;;5088013;28;19923;-73
2022/08/17 09:18:27;;;;;;;;;;;;;;;;;;5112413;28;19967;-73
2022/08/17 09:20:53;;;;;;;;;;;;;;;;;;5107602;28;19990;-74
2022/08/17 09:23:19;;;;;;;;;;;;;;;;;;5078622;28;19969;-73
2022/08/17 09:25:47;;;;;;;;;;;;;;;;;;5075582;28;19920;-73
2022/08/17 09:28:13;;;;;;;;;;;;;;;;;;5095811;28;19924;-73
2022/08/17 09:30:39;;;;;;;;;;;;;;;;;;5092769;28;19934;-74
2022/08/17 09:33:07;;;;;;;;;;;;;;;;;;5074522;28;20288;-73
2022/08/17 09:35:33;;;;;;;;;;;;;;;;;;5092325;28;19973;-73
2022/08/17 09:38:00;;;;;;;;;;;;;;;;;;5113059;27;20019;-72
2022/08/17 09:40:25;;;;;;;;;;;;;;;;;;5099293;28;19926;-73
2022/08/17 09:42:51;;;;;;;;;;;;;;;;;;5102029;28;20006;-73
2022/08/17 09:45:17;;;;;;;;;;;;;;;;;;5057066;28;19929;-72
2022/08/17 09:47:44;;;;;;;;;;;;;;;;;;5065033;28;19986;-75
2022/08/17 09:50:10;;;;;;;;;;;;;;;;;;5094162;28;19943;-72
2022/08/17 09:52:36;;;;;;;;;;;;;;;;;;5103936;28;19920;-72
2022/08/17 09:55:02;;;;;;;;;;;;;;;;;;5091377;28;19920;-73
2022/08/17 09:57:28;;;;;;;;;;;;;;;;;;5088534;28;19924;-73
2022/08/17 09:59:54;;;;;;;;;;;;;;;;;;5094514;28;19927;-72
2022/08/17 10:02:20;;;;;;;;;;;;;;;;;;5097948;28;19930;-72
2022/08/17 10:04:46;;;;;;;;;;;;;;;;;;5097850;28;19977;-73
2022/08/17 10:07:12;;;;;;;;;;;;;;;;;;5101974;28;19990;-72
2022/08/17 10:09:38;;;;;;;;;;;;;;;;;;5083948;28;19967;-73
2022/08/17 10:12:18;;;;;;;;;;;;;;;;;;5086104;28;19932;-72
2022/08/17 10:14:44;;;;;;;;;;;;;;;;;;5070705;28;19920;-72
2022/08/17 10:17:10;;;;;;;;;;;;;;;;;;5089568;28;20427;-73
2022/08/17 10:19:36;;;;;;;;;;;;;;;;;;5072532;28;20003;-72
2022/08/17 10:27:31;;;;;;;;;;;;;;;;;;5101870;28;20385;-73
2022/08/17 10:29:58;;;;;;;;;;;;;;;;;;5099591;28;19995;-72
2022/08/17 10:32:25;;;;;;;;;;;;;;;;;;5105396;28;20011;-72
2022/08/17 10:34:50;;;;;;;;;;;;;;;;;;5090565;28;20858;-73
2022/08/17 10:37:18;;;;;;;;;;;;;;;;;;5094313;28;19999;-74
2022/08/17 10:39:44;;;;;;;;;;;;;;;;;;5106210;28;19998;-73
2022/08/17 10:42:10;;;;;;;;;;;;;;;;;;5073028;28;20046;-74
2022/08/17 10:44:36;;;;;;;;;;;;;;;;;;5088743;28;19946;-75
2022/08/17 10:47:02;;;;;;;;;;;;;;;;;;5073040;28;19986;-73
2022/08/17 10:49:28;;;;;;;;;;;;;;;;;;5106084;28;19923;-77
2022/08/17 10:51:54;;;;;;;;;;;;;;;;;;5094921;28;19966;-72
2022/08/17 10:54:20;;;;;;;;;;;;;;;;;;5109754;28;19977;-73
2022/08/17 10:56:46;;;;;;;;;;;;;;;;;;5096046;28;20499;-73
2022/08/17 10:59:12;;;;;;;;;;;;;;;;;;5098521;28;20284;-73
2022/08/17 11:01:38;;;;;;;;;;;;;;;;;;5080471;28;19919;-74
2022/08/17 11:04:04;;;;;;;;;;;;;;;;;;5105331;28;20006;-75
2022/08/17 11:06:31;;;;;;;;;;;;;;;;;;5077462;28;20011;-78
2022/08/17 11:08:57;;;;;;;;;;;;;;;;;;5107372;28;19971;-73
2022/08/17 11:11:23;;;;;;;;;;;;;;;;;;5094207;28;20468;-73
2022/08/17 11:13:48;;;;;;;;;;;;;;;;;;5101643;28;19924;-73
2022/08/17 11:16:14;;;;;;;;;;;;;;;;;;5097655;28;20363;-73
2022/08/17 11:18:40;;;;;;;;;;;;;;;;;;5093102;28;20415;-74
2022/08/17 11:21:06;;;;;;;;;;;;;;;;;;5100427;28;20343;-74
2022/08/17 11:23:32;;;;;;;;;;;;;;;;;;5112979;28;19920;-78
2022/08/17 11:26:02;;;;;;;;;;;;;;;;;;5084914;28;19988;-73
2022/08/17 11:28:33;;;;;;;;;;;;;;;;;;5097956;28;19939;-73
2022/08/17 11:30:59;;;;;;;;;;;;;;;;;;5091402;28;19931;-73
2022/08/17 11:33:25;;;;;;;;;;;;;;;;;;5092930;28;19920;-73
2022/08/17 11:35:50;;;;;;;;;;;;;;;;;;5104872;28;20042;-73
2022/08/17 11:38:16;;;;;;;;;;;;;;;;;;5109900;28;19920;-75
2022/08/17 11:40:45;;;;;;;;;;;;;;;;;;5109540;28;20243;-76
2022/08/17 11:43:12;;;;;;;;;;;;;;;;;;5082968;28;20279;-74
2022/08/17 11:45:38;;;;;;;;;;;;;;;;;;5100143;28;19920;-73
2022/08/17 11:53:36;;;;;;;;;;;;;;;;;;5102000;28;19927;-76
2022/08/17 11:56:02;;;;;;;;;;;;;;;;;;5090619;28;20360;-78
2022/08/17 11:58:28;;;;;;;;;;;;;;;;;;5102518;28;19925;-77
2022/08/17 12:00:55;;;;;;;;;;;;;;;;;;5077459;28;20334;-74
2022/08/17 12:03:21;;;;;;;;;;;;;;;;;;5099729;28;19923;-75
2022/08/17 12:05:47;;;;;;;;;;;;;;;;;;5083825;28;19969;-74
2022/08/17 12:08:14;;;;;;;;;;;;;;;;;;5077968;28;20305;-75
2022/08/17 12:10:40;;;;;;;;;;;;;;;;;;5090785;28;20278;-75
2022/08/17 12:13:05;;;;;;;;;;;;;;;;;;5094104;28;19920;-75
2022/08/17 12:15:31;;;;;;;;;;;;;;;;;;5105328;28;20260;-76
2022/08/17 12:17:57;;;;;;;;;;;;;;;;;;5069827;28;20710;-75
2022/08/17 12:20:23;;;;;;;;;;;;;;;;;;5103078;28;20356;-75
2022/08/17 12:22:53;;;;;;;;;;;;;;;;;;5083018;28;19919;-75
2022/08/17 12:25:19;;;;;;;;;;;;;;;;;;5083841;28;19920;-75
2022/08/17 12:27:45;;;;;;;;;;;;;;;;;;5092479;28;20382;-76
2022/08/17 12:30:11;;;;;;;;;;;;;;;;;;5111707;28;20342;-74
2022/08/17 12:32:39;;;;;;;;;;;;;;;;;;5089786;28;19931;-77
2022/08/17 12:35:05;;;;;;;;;;;;;;;;;;5093253;28;20359;-75
2022/08/17 12:37:31;;;;;;;;;;;;;;;;;;5101875;28;19929;-75
2022/08/17 12:39:57;;;;;;;;;;;;;;;;;;5086705;28;19920;-73
2022/08/17 12:42:23;;;;;;;;;;;;;;;;;;5127861;27;19952;-72
2022/08/17 12:44:49;;;;;;;;;;;;;;;;;;5111205;28;19963;-73
2022/08/17 12:47:16;;;;;;;;;;;;;;;;;;5095347;28;19985;-76
2022/08/17 12:49:42;;;;;;;;;;;;;;;;;;5093327;28;20015;-73
2022/08/17 12:52:08;;;;;;;;;;;;;;;;;;5092969;28;19964;-74
2022/08/17 12:54:34;;;;;;;;;;;;;;;;;;5075472;28;20585;-74
2022/08/17 12:57:00;;;;;;;;;;;;;;;;;;5085401;28;20012;-74
2022/08/17 12:59:26;;;;;;;;;;;;;;;;;;5124922;27;19924;-72
2022/08/17 13:01:52;;;;;;;;;;;;;;;;;;5090923;28;19932;-73
2022/08/17 13:04:19;;;;;;;;;;;;;;;;;;5094396;28;19930;-73
2022/08/17 13:06:45;;;;;;;;;;;;;;;;;;5090570;28;19928;-73
2022/08/17 13:09:11;;;;;;;;;;;;;;;;;;5092286;28;19931;-73
2022/08/17 13:11:37;;;;;;;;;;;;;;;;;;5096901;28;20266;-72
2022/08/17 13:14:03;;;;;;;;;;;;;;;;;;5092837;28;19988;-75
2022/08/17 13:16:29;;;;;;;;;;;;;;;;;;5088088;28;20330;-73
2022/08/17 13:18:57;;;;;;;;;;;;;;;;;;5077760;28;19920;-71
2022/08/17 13:21:25;;;;;;;;;;;;;;;;;;5093665;28;20578;-74
2022/08/17 13:23:51;;;;;;;;;;;;;;;;;;5099391;28;19928;-73
2022/08/17 13:26:17;;;;;;;;;;;;;;;;;;5096919;28;20355;-72
2022/08/17 13:28:43;;;;;;;;;;;;;;;;;;5093703;28;20377;-74
2022/08/17 13:31:09;;;;;;;;;;;;;;;;;;5073878;28;19920;-72
2022/08/17 13:33:35;;;;;;;;;;;;;;;;;;5087475;28;19923;-72
2022/08/17 13:36:01;;;;;;;;;;;;;;;;;;5102081;28;19926;-71
2022/08/17 13:38:29;;;;;;;;;;;;;;;;;;5102711;28;19920;-72
2022/08/17 13:40:55;;;;;;;;;;;;;;;;;;5091556;28;20424;-72
2022/08/17 13:43:21;;;;;;;;;;;;;;;;;;5091305;28;20015;-72
2022/08/17 13:45:47;;;;;;;;;;;;;;;;;;5091443;28;19927;-72
2022/08/17 13:48:14;;;;;;;;;;;;;;;;;;5092491;28;20363;-73
2022/08/17 13:50:40;;;;;;;;;;;;;;;;;;5120606;27;20010;-73
2022/08/17 13:53:05;;;;;;;;;;;;;;;;;;5081846;28;19999;-73
2022/08/17 13:55:31;;;;;;;;;;;;;;;;;;5104856;28;19927;-74
2022/08/17 13:57:57;;;;;;;;;;;;;;;;;;5103383;28;20011;-73
2022/08/17 14:00:29;;;;;;;;;;;;;;;;;;5097965;28;19979;-73
2022/08/17 14:02:55;;;;;;;;;;;;;;;;;;5090426;28;19923;-72
2022/08/17 14:05:21;;;;;;;;;;;;;;;;;;5123645;27;19928;-72
2022/08/17 14:07:47;;;;;;;;;;;;;;;;;;5091481;28;19920;-74
2022/08/17 14:10:13;;;;;;;;;;;;;;;;;;5110108;28;19963;-73
2022/08/17 14:12:39;;;;;;;;;;;;;;;;;;5108455;28;20374;-74
2022/08/17 14:15:05;;;;;;;;;;;;;;;;;;5092537;28;20258;-72
2022/08/17 14:17:30;;;;;;;;;;;;;;;;;;5107367;28;19928;-71
2022/08/17 14:19:57;;;;;;;;;;;;;;;;;;5090161;28;19931;-73
2022/08/17 14:22:23;;;;;;;;;;;;;;;;;;5091111;28;19919;-71
2022/08/17 14:24:50;;;;;;;;;;;;;;;;;;5092703;28;19920;-74
2022/08/17 14:27:16;;;;;;;;;;;;;;;;;;5099804;28;19971;-73
2022/08/17 14:29:42;;;;;;;;;;;;;;;;;;5100635;28;20274;-72
2022/08/17 14:32:08;;;;;;;;;;;;;;;;;;5108992;28;19924;-72
2022/08/17 14:34:34;;;;;;;;;;;;;;;;;;5090491;28;20007;-73
2022/08/17 14:37:00;;;;;;;;;;;;;;;;;;5103008;28;20534;-73
2022/08/17 14:39:27;;;;;;;;;;;;;;;;;;5112937;28;20325;-72
2022/08/17 14:41:53;;;;;;;;;;;;;;;;;;5109545;28;19919;-72
2022/08/17 14:44:19;;;;;;;;;;;;;;;;;;5098868;28;19963;-72
2022/08/17 14:46:46;;;;;;;;;;;;;;;;;;5103843;28;19959;-72
2022/08/17 14:49:14;;;;;;;;;;;;;;;;;;5106546;28;19972;-73
2022/08/17 14:51:40;;;;;;;;;;;;;;;;;;5114617;28;19920;-72
2022/08/17 14:54:06;;;;;;;;;;;;;;;;;;5107861;28;19927;-73
2022/08/17 14:56:32;;;;;;;;;;;;;;;;;;5092878;28;19927;-71
2022/08/17 14:58:58;;;;;;;;;;;;;;;;;;5101521;28;19919;-71
2022/08/17 15:01:24;;;;;;;;;;;;;;;;;;5114386;28;20002;-71
2022/08/17 15:03:50;;;;;;;;;;;;;;;;;;5093592;28;19943;-74
2022/08/17 15:06:16;;;;;;;;;;;;;;;;;;5095344;28;19920;-74
2022/08/17 15:08:42;;;;;;;;;;;;;;;;;;5092236;28;19972;-74
2022/08/17 15:11:08;;;;;;;;;;;;;;;;;;5094215;28;19920;-75
2022/08/17 15:13:34;;;;;;;;;;;;;;;;;;5130100;27;19920;-73
2022/08/17 15:16:01;;;;;;;;;;;;;;;;;;5108261;28;19928;-73
2022/08/17 15:18:27;;;;;;;;;;;;;;;;;;5090166;28;19928;-74
2022/08/17 15:20:53;;;;;;;;;;;;;;;;;;5096430;28;20259;-75
2022/08/17 15:23:19;;;;;;;;;;;;;;;;;;5079220;28;19920;-74
2022/08/17 15:25:45;;;;;;;;;;;;;;;;;;5093596;28;19924;-76
2022/08/17 15:28:11;;;;;;;;;;;;;;;;;;5090574;28;19924;-74
2022/08/17 15:30:37;;;;;;;;;;;;;;;;;;5095490;28;19985;-74
2022/08/17 15:33:03;;;;;;;;;;;;;;;;;;5074366;28;19930;-74
2022/08/17 15:35:29;;;;;;;;;;;;;;;;;;5105956;28;20357;-74
2022/08/17 15:37:54;;;;;;;;;;;;;;;;;;5079586;28;19932;-77
2022/08/17 15:40:20;;;;;;;;;;;;;;;;;;5099622;28;19982;-74
2022/08/17 15:42:46;;;;;;;;;;;;;;;;;;5079413;28;19920;-75
2022/08/17 15:45:12;;;;;;;;;;;;;;;;;;5106143;28;19920;-75
2022/08/17 15:47:38;;;;;;;;;;;;;;;;;;5086130;28;19930;-73
2022/08/17 15:50:05;;;;;;;;;;;;;;;;;;5105834;28;20002;-76
2022/08/17 15:52:31;;;;;;;;;;;;;;;;;;5087438;28;20308;-77
2022/08/17 15:54:57;;;;;;;;;;;;;;;;;;5101057;28;19920;-76
2022/08/17 15:57:24;;;;;;;;;;;;;;;;;;5094970;28;20028;-75
2022/08/17 15:59:50;;;;;;;;;;;;;;;;;;5099999;28;20419;-75
2022/08/17 16:02:18;;;;;;;;;;;;;;;;;;5084498;28;19988;-76
2022/08/17 16:04:44;;;;;;;;;;;;;;;;;;5101849;28;20010;-76
2022/08/17 16:07:10;;;;;;;;;;;;;;;;;;5085366;28;20407;-77
2022/08/17 16:09:37;;;;;;;;;;;;;;;;;;5074215;28;20397;-75
2022/08/17 16:12:03;;;;;;;;;;;;;;;;;;5093469;28;19931;-77
2022/08/17 16:14:29;;;;;;;;;;;;;;;;;;5081342;28;19924;-76
2022/08/17 16:16:57;;;;;;;;;;;;;;;;;;5117824;27;19991;-76
2022/08/17 16:19:23;;;;;;;;;;;;;;;;;;5089613;28;19920;-78
2022/08/17 16:21:49;;;;;;;;;;;;;;;;;;5071848;28;19927;-77
2022/08/17 16:24:15;;;;;;;;;;;;;;;;;;5097999;28;19963;-78
2022/08/17 16:26:41;;;;;;;;;;;;;;;;;;5092377;28;19926;-83
2022/08/17 16:29:07;;;;;;;;;;;;;;;;;;5073620;28;19920;-77
2022/08/17 16:31:34;;;;;;;;;;;;;;;;;;5069705;28;20011;-81
2022/08/17 16:34:01;;;;;;;;;;;;;;;;;;5097579;28;20122;-78
2022/08/17 16:36:28;;;;;;;;;;;;;;;;;;5104415;28;19919;-76
2022/08/17 16:38:54;;;;;;;;;;;;;;;;;;5089341;28;19946;-73
2022/08/17 16:41:38;;;;;;;;;;;;;;;;;;5085117;28;19931;-73
2022/08/17 16:44:05;;;;;;;;;;;;;;;;;;5074174;28;19950;-78
2022/08/17 16:46:31;;;;;;;;;;;;;;;;;;5082968;28;19924;-76
2022/08/17 16:48:59;;;;;;;;;;;;;;;;;;5092829;28;20007;-76
2022/08/17 16:51:25;;;;;;;;;;;;;;;;;;5107244;27;19921;-77
2022/08/17 16:53:52;;;;;;;;;;;;;;;;;;5072981;28;19931;-76
2022/08/17 16:56:18;;;;;;;;;;;;;;;;;;5098448;28;19966;-74
2022/08/17 16:58:44;;;;;;;;;;;;;;;;;;5091291;28;19923;-76
2022/08/17 17:01:10;;;;;;;;;;;;;;;;;;5074011;28;19920;-75
2022/08/17 17:03:36;;;;;;;;;;;;;;;;;;5090192;28;19920;-75